Time;durP1;ratioP1;P1;durP2;ratioP2;P2;SDS_P1;SDS_P2;PMS_P1;PMS_P2;Temp;Humidity;BMP_temperature;BMP_pressure;BME280_temperature;BME280_humidity;BME280_pressure;Samples;Min_cycle;Max_cycle;Signal;HPM_P1;HPM_P2
2021/03/20 00:01:48;;;;;;;21.40;11.88;;;;;;;-2.80;60.49;101161.45;128006;1101;22534;-74
2021/03/20 00:04:20;;;;;;;25.60;12.28;;;;;;;-2.85;60.64;101159.89;127926;1101;22622;-73
2021/03/20 00:06:55;;;;;;;20.15;10.10;;;;;;;-2.87;60.96;101160.85;127956;1101;24363;-74
2021/03/20 00:09:27;;;;;;;23.52;10.75;;;;;;;-2.89;61.16;101160.09;127949;1101;22534;-74
2021/03/20 00:11:57;;;;;;;23.32;11.95;;;;;;;-2.93;61.10;101151.62;128029;1100;24636;-74
2021/03/20 00:14:27;;;;;;;24.80;14.10;;;;;;;-2.97;60.75;101162.96;127997;1101;22502;-74
2021/03/20 00:16:55;;;;;;;28.02;13.55;;;;;;;-2.99;60.79;101166.53;128015;1101;22615;-74
2021/03/20 00:19:23;;;;;;;26.97;14.03;;;;;;;-3.01;60.92;101164.00;128011;1101;22512;-74
2021/03/20 00:21:52;;;;;;;27.40;13.83;;;;;;;-3.01;61.53;101166.58;127975;1101;22577;-74
2021/03/20 00:24:20;;;;;;;33.00;13.95;;;;;;;-3.01;61.09;101169.16;128188;1100;22529;-75
2021/03/20 00:26:48;;;;;;;25.00;13.45;;;;;;;-3.03;61.56;101170.98;127936;1101;23390;-74
2021/03/20 00:29:16;;;;;;;30.10;13.62;;;;;;;-3.04;61.31;101166.70;127936;1101;22528;-74
2021/03/20 00:31:44;;;;;;;28.25;13.03;;;;;;;-3.04;61.59;101174.45;128209;1101;22633;-73
2021/03/20 00:34:12;;;;;;;37.25;16.32;;;;;;;-3.03;61.75;101164.95;128204;1101;24449;-74
2021/03/20 00:36:40;;;;;;;33.80;18.15;;;;;;;-3.04;61.68;101174.45;127936;1101;22533;-74
2021/03/20 00:39:09;;;;;;;37.93;17.73;;;;;;;-3.04;61.67;101181.38;127965;1101;22486;-74
2021/03/20 00:41:37;;;;;;;29.30;16.23;;;;;;;-3.08;61.67;101165.14;127958;1101;22502;-74
2021/03/20 00:44:06;;;;;;;31.70;14.60;;;;;;;-3.10;62.19;101172.97;127978;1101;22532;-74
2021/03/20 00:46:34;;;;;;;34.08;14.75;;;;;;;-3.11;62.33;101167.84;128019;1101;22498;-73
2021/03/20 00:49:03;;;;;;;31.37;14.45;;;;;;;-3.11;62.14;101167.84;127974;1101;22539;-73
2021/03/20 00:51:31;;;;;;;25.95;13.58;;;;;;;-3.13;62.31;101183.43;127926;1101;22629;-73
2021/03/20 00:53:59;;;;;;;25.65;14.05;;;;;;;-3.15;62.46;101172.30;127918;1101;22506;-74
2021/03/20 00:56:27;;;;;;;26.97;14.13;;;;;;;-3.19;62.28;101177.66;127961;1101;24581;-74
2021/03/20 00:58:56;;;;;;;26.27;13.85;;;;;;;-3.21;62.44;101176.86;127948;1102;22542;-74
2021/03/20 01:01:24;;;;;;;26.95;13.38;;;;;;;-3.24;62.16;101172.65;127957;1101;22504;-74
2021/03/20 01:03:52;;;;;;;29.45;15.20;;;;;;;-3.24;62.79;101174.40;127949;1102;22574;-75
2021/03/20 01:06:25;;;;;;;29.07;15.65;;;;;;;-3.25;62.50;101177.89;127942;1101;24648;-74
2021/03/20 01:08:55;;;;;;;38.78;16.70;;;;;;;-3.28;62.72;101176.26;127984;1102;22687;-74
2021/03/20 01:11:26;;;;;;;35.48;16.20;;;;;;;-3.29;62.88;101186.67;127922;1103;22531;-74
2021/03/20 01:13:55;;;;;;;26.20;12.95;;;;;;;-3.33;62.74;101181.62;128015;1103;23513;-74
2021/03/20 01:16:24;;;;;;;24.52;11.85;;;;;;;-3.35;62.64;101185.15;127899;1103;22632;-74
2021/03/20 01:18:54;;;;;;;18.90;10.68;;;;;;;-3.37;62.99;101185.19;127917;1102;22522;-74
2021/03/20 01:21:24;;;;;;;19.82;10.82;;;;;;;-3.41;62.75;101193.97;127936;1103;22539;-74
2021/03/20 01:23:53;;;;;;;21.82;10.95;;;;;;;-3.45;63.06;101187.23;128182;1099;22507;-75
2021/03/20 01:26:22;;;;;;;21.55;11.30;;;;;;;-3.46;63.43;101180.40;127888;1104;22505;-75
2021/03/20 01:28:50;;;;;;;25.37;12.60;;;;;;;-3.51;63.32;101177.13;127932;1103;22541;-73
2021/03/20 01:31:18;;;;;;;19.48;11.73;;;;;;;-3.54;63.31;101174.66;128223;1099;22508;-75
2021/03/20 01:33:47;;;;;;;25.00;13.20;;;;;;;-3.57;63.24;101177.36;127979;1101;22515;-75
2021/03/20 01:36:15;;;;;;;29.27;14.83;;;;;;;-3.58;63.62;101173.09;127914;1103;22603;-73
2021/03/20 01:38:44;;;;;;;24.92;13.00;;;;;;;-3.58;63.91;101186.02;127928;1102;22537;-73
2021/03/20 01:41:18;;;;;;;23.40;13.10;;;;;;;-3.59;63.71;101171.42;127964;1100;24588;-73
2021/03/20 01:43:47;;;;;;;31.37;14.43;;;;;;;-3.61;63.67;101171.47;127924;1101;22490;-73
2021/03/20 01:46:38;;;;;;;30.00;14.70;;;;;;;-3.63;64.07;101181.03;127884;1104;24635;-73
2021/03/20 01:49:37;;;;;;;23.47;13.32;;;;;;;-3.67;64.07;101183.77;128003;1104;24366;-75
2021/03/20 01:52:12;;;;;;;27.65;14.53;;;;;;;-3.68;64.20;101187.25;127930;1103;22579;-75
2021/03/20 01:55:12;;;;;;;22.13;13.18;;;;;;;-3.69;64.25;101190.75;128275;1100;22510;-73
2021/03/20 01:57:49;;;;;;;30.23;14.15;;;;;;;-3.71;64.30;101195.11;128092;1102;22516;-76
2021/03/20 02:00:37;;;;;;;32.03;15.60;;;;;;;-3.71;64.16;101202.86;127948;1103;24394;-74
2021/03/20 02:03:17;;;;;;;36.75;15.98;;;;;;;-3.74;64.40;101197.80;127979;1102;22612;-75
2021/03/20 02:05:47;;;;;;;26.40;13.13;;;;;;;-3.74;64.32;101200.38;127957;1103;22535;-76
2021/03/20 02:08:18;;;;;;;19.82;11.03;;;;;;;-3.79;64.37;101198.81;127978;1104;22535;-75
2021/03/20 02:10:47;;;;;;;18.77;11.15;;;;;;;-3.81;64.39;101198.02;127968;1104;22605;-74
2021/03/20 02:13:38;;;;;;;16.48;9.80;;;;;;;-3.83;64.59;101192.09;127929;1099;22512;-73
2021/03/20 02:16:49;;;;;;;19.65;10.75;;;;;;;-3.82;64.74;101203.25;127928;1103;23065;-74
2021/03/20 02:20:00;;;;;;;22.80;11.15;;;;;;;-3.84;64.70;101205.88;127925;1103;22500;-74
2021/03/20 02:23:32;;;;;;;20.52;10.95;;;;;;;-3.86;64.88;101205.10;127940;1103;22511;-74
2021/03/20 02:26:38;;;;;;;15.25;10.00;;;;;;;-3.89;64.91;101212.12;128178;1101;24975;-73
2021/03/20 02:29:21;;;;;;;21.27;11.83;;;;;;;-3.91;64.93;101211.31;127497;1105;22801;-73
2021/03/20 02:32:42;;;;;;;27.93;13.83;;;;;;;-3.92;64.96;101202.73;127902;1104;22504;-74
2021/03/20 02:35:17;;;;;;;29.80;12.47;;;;;;;-3.97;65.11;101211.53;127503;1105;22645;-73
2021/03/20 02:38:26;;;;;;;24.10;12.50;;;;;;;-3.99;64.97;101211.59;127440;1104;22552;-73
2021/03/20 02:41:22;;;;;;;24.10;12.60;;;;;;;-4.02;65.05;101206.54;127383;1108;22549;-73
2021/03/20 02:44:14;;;;;;;26.02;14.55;;;;;;;-4.03;65.22;101215.19;127019;1108;22530;-73
2021/03/20 02:47:02;;;;;;;33.67;17.03;;;;;;;-4.04;65.46;101208.31;127063;1108;22975;-74
2021/03/20 02:49:57;;;;;;;29.48;12.88;;;;;;;-4.07;65.43;101211.84;127096;1108;23465;-72
2021/03/20 02:52:44;;;;;;;21.90;10.65;;;;;;;-4.07;65.08;101211.00;127329;1105;22659;-73
2021/03/20 02:55:21;;;;;;;19.57;10.65;;;;;;;-4.08;65.28;101215.33;127342;1108;22611;-73
2021/03/20 02:58:23;;;;;;;18.42;8.83;;;;;;;-4.11;65.48;101215.43;127337;1105;22528;-73
2021/03/20 03:01:03;;;;;;;20.82;9.45;;;;;;;-4.17;65.36;101215.64;127202;1107;22640;-73
2021/03/20 03:03:40;;;;;;;17.55;9.80;;;;;;;-4.19;65.64;101217.45;127484;1106;24501;-74
2021/03/20 03:06:45;;;;;;;16.52;8.70;;;;;;;-4.17;65.78;101214.80;127553;1104;22524;-74
2021/03/20 03:09:23;;;;;;;17.03;8.67;;;;;;;-4.19;65.45;101224.34;127935;1104;23513;-74
2021/03/20 03:12:21;;;;;;;18.60;8.90;;;;;;;-4.19;65.50;101221.77;127931;1103;22504;-73
2021/03/20 03:15:13;;;;;;;13.35;7.83;;;;;;;-4.22;65.65;101219.30;127487;1108;22602;-74
2021/03/20 03:17:48;;;;;;;19.73;8.75;;;;;;;-4.23;66.25;101227.91;127221;1108;22563;-75
2021/03/20 03:20:26;;;;;;;18.37;9.10;;;;;;;-4.24;66.02;101224.48;127058;1107;22557;-76
2021/03/20 03:23:00;;;;;;;16.27;8.85;;;;;;;-4.22;66.26;101229.61;127087;1108;22535;-74
2021/03/20 03:25:31;;;;;;;14.87;8.85;;;;;;;-4.21;66.00;101224.38;127026;1106;22655;-74
2021/03/20 03:28:05;;;;;;;14.75;8.45;;;;;;;-4.21;66.27;101229.55;127354;1106;22531;-74
2021/03/20 03:30:35;;;;;;;15.28;8.63;;;;;;;-4.19;66.17;101232.09;127051;1106;22536;-74
2021/03/20 03:33:34;;;;;;;13.80;8.23;;;;;;;-4.19;65.96;101224.34;127495;1107;22560;-73
2021/03/20 03:36:09;;;;;;;13.72;7.83;;;;;;;-4.23;66.35;101231.36;127484;1108;24648;-74
2021/03/20 03:38:56;;;;;;;18.30;7.97;;;;;;;-4.23;66.34;101238.22;127492;1105;22513;-73
2021/03/20 03:41:34;;;;;;;15.90;8.95;;;;;;;-4.24;66.36;101241.70;127455;1106;22532;-73
2021/03/20 03:44:05;;;;;;;15.53;10.25;;;;;;;-4.26;66.50;101239.20;127040;1108;22994;-73
2021/03/20 03:46:42;;;;;;;19.20;8.73;;;;;;;-4.25;66.47;101243.45;127454;1108;22531;-74
2021/03/20 03:49:16;;;;;;;13.88;8.00;;;;;;;-4.28;66.56;101244.39;127372;1108;22980;-74
2021/03/20 03:51:44;;;;;;;21.00;8.25;;;;;;;-4.28;66.67;101246.13;127397;1105;22525;-78
2021/03/20 03:54:13;;;;;;;22.35;9.03;;;;;;;-4.28;66.86;101249.55;127595;1101;22546;-79
2021/03/20 03:57:12;;;;;;;14.65;8.45;;;;;;;-4.28;66.94;101244.39;127986;1101;22525;-74
2021/03/20 03:59:58;;;;;;;13.50;7.83;;;;;;;-4.29;66.83;101234.97;128017;1101;24688;-74
2021/03/20 04:02:54;;;;;;;16.40;9.45;;;;;;;-4.29;66.80;101236.72;128294;1101;25925;-74
2021/03/20 04:05:26;;;;;;;17.65;8.75;;;;;;;-4.32;66.65;101245.39;127925;1101;22543;-73
2021/03/20 04:08:19;;;;;;;13.08;8.78;;;;;;;-4.32;67.24;101247.13;128025;1101;22597;-74
2021/03/20 04:10:57;;;;;;;;;;;;;;;-4.38;66.67;101245.59;128220;1099;22498;-74
2021/03/20 04:13:49;;;;;;;14.28;8.55;;;;;;;-4.45;66.78;101245.85;127936;1100;21658;-74
2021/03/20 04:16:21;;;;;;;17.50;9.95;;;;;;;-4.45;67.33;101251.01;128186;1101;22523;-74
2021/03/20 04:19:08;;;;;;;;;;;;;;;-4.48;66.76;101246.78;127992;1101;22489;-74
2021/03/20 04:21:51;;;;;;;22.95;9.03;;;;;;;-4.55;67.07;101253.87;127977;1101;21313;-73
2021/03/20 04:24:49;;;;;;;18.73;8.40;;;;;;;-4.55;67.36;101255.62;128185;1099;23996;-74
2021/03/20 04:27:23;;;;;;;18.77;8.53;;;;;;;-4.56;67.49;101264.25;128238;1101;22592;-73
2021/03/20 04:30:18;;;;;;;19.82;9.83;;;;;;;-4.58;67.46;101266.86;127970;1101;22492;-73
2021/03/20 04:33:04;;;;;;;17.52;9.13;;;;;;;-4.60;67.50;101270.38;128128;1099;22499;-73
2021/03/20 04:35:55;;;;;;;16.82;8.65;;;;;;;-4.60;67.67;101272.95;128001;1101;24411;-74
2021/03/20 04:38:25;;;;;;;17.23;8.13;;;;;;;-4.62;67.67;101273.02;127934;1101;22591;-73
2021/03/20 04:41:08;;;;;;;18.85;9.03;;;;;;;-4.64;67.68;101277.37;128188;1101;22617;-73
2021/03/20 04:43:39;;;;;;;16.95;8.73;;;;;;;-4.63;67.93;101276.50;128015;1100;22488;-74
2021/03/20 04:46:19;;;;;;;16.82;9.95;;;;;;;-4.62;68.01;101279.91;127985;1101;22524;-74
2021/03/20 04:49:15;;;;;;;20.50;9.93;;;;;;;-4.63;67.82;101281.66;128071;1101;22532;-73
2021/03/20 04:51:50;;;;;;;21.73;11.05;;;;;;;-4.63;68.08;101284.23;127880;1101;22566;-75
2021/03/20 04:54:21;;;;;;;19.70;10.23;;;;;;;-4.62;68.14;101279.91;127977;1101;22608;-74
2021/03/20 04:57:04;;;;;;;17.42;10.63;;;;;;;-4.61;68.11;101281.59;127994;1101;22501;-74
2021/03/20 05:00:10;;;;;;;18.23;9.60;;;;;;;-4.61;68.26;101282.43;128177;1100;22499;-73
2021/03/20 05:02:45;;;;;;;18.15;9.48;;;;;;;-4.62;68.17;101287.66;127941;1101;24309;-74
2021/03/20 05:05:41;;;;;;;15.97;10.27;;;;;;;-4.61;68.43;101286.75;128080;1099;22528;-74
2021/03/20 05:08:31;;;;;;;13.70;8.27;;;;;;;-4.60;68.22;101288.42;127968;1101;22508;-74
2021/03/20 05:11:08;;;;;;;19.77;10.58;;;;;;;-4.59;68.44;101282.41;127917;1101;22942;-74
2021/03/20 05:14:10;;;;;;;21.37;8.87;;;;;;;-4.56;68.60;101290.05;127943;1101;22576;-73
2021/03/20 05:16:58;;;;;;;20.08;9.88;;;;;;;-4.55;68.39;101296.88;128222;1101;22492;-73
2021/03/20 05:19:29;;;;;;;13.15;9.25;;;;;;;-4.54;68.53;101299.39;127936;1101;23300;-74
2021/03/20 05:21:58;;;;;;;14.13;8.15;;;;;;;-4.49;68.65;101296.69;128004;1101;24363;-74
2021/03/20 05:24:34;;;;;;;16.60;9.45;;;;;;;-4.43;68.87;101300.78;127967;1100;22592;-74
2021/03/20 05:27:08;;;;;;;14.10;8.58;;;;;;;-4.38;68.88;101304.08;127918;1100;24572;-73
2021/03/20 05:29:36;;;;;;;20.97;9.28;;;;;;;-4.35;68.78;101304.82;128196;1101;22523;-74
2021/03/20 05:32:05;;;;;;;17.65;9.08;;;;;;;-4.32;69.09;101304.72;127963;1101;22491;-74
2021/03/20 05:34:38;;;;;;;19.87;11.80;;;;;;;-4.24;69.04;101316.53;127956;1101;24391;-74
2021/03/20 05:37:09;;;;;;;34.08;15.72;;;;;;;-4.21;68.81;101306.95;127998;1101;22570;-74
2021/03/20 05:39:37;;;;;;;34.33;15.45;;;;;;;-4.18;68.95;101319.75;127928;1101;22508;-75
2021/03/20 05:42:26;;;;;;;25.95;12.68;;;;;;;-4.16;68.81;101317.14;127942;1099;22574;-74
2021/03/20 05:45:20;;;;;;;27.95;12.75;;;;;;;-4.11;69.27;101323.81;127941;1101;24613;-74
2021/03/20 05:48:07;;;;;;;24.65;10.98;;;;;;;-4.03;69.45;101315.84;128158;1101;24613;-75
2021/03/20 05:51:07;;;;;;;20.48;10.70;;;;;;;-3.96;69.17;101322.48;127983;1101;22624;-74
2021/03/20 05:53:59;;;;;;;20.27;11.38;;;;;;;-3.90;69.33;101327.44;128014;1101;24433;-74
2021/03/20 05:57:14;;;;;;;22.80;12.53;;;;;;;-3.85;69.16;101322.95;128135;1099;24417;-74
2021/03/20 06:00:23;;;;;;;21.07;11.80;;;;;;;-3.77;69.50;101322.68;127962;1101;22595;-74
2021/03/20 06:03:37;;;;;;;23.27;12.20;;;;;;;-3.66;69.55;101319.75;127965;1101;22519;-73
2021/03/20 06:06:54;;;;;;;23.67;11.50;;;;;;;-3.59;69.34;101316.05;127965;1100;25148;-73
2021/03/20 06:09:44;;;;;;;16.85;10.23;;;;;;;-3.53;69.26;101318.42;127952;1101;24626;-74
2021/03/20 06:12:24;;;;;;;21.30;9.78;;;;;;;-3.46;68.81;101332.81;127965;1101;22509;-73
2021/03/20 06:15:58;;;;;;;16.05;9.08;;;;;;;-3.38;69.09;101337.70;128207;1099;24376;-73
2021/03/20 06:18:54;;;;;;;15.03;9.33;;;;;;;-3.35;69.07;101335.84;127341;1105;22620;-73
2021/03/20 06:21:50;;;;;;;16.62;8.10;;;;;;;-3.29;69.23;101323.62;127360;1105;22595;-73
2021/03/20 06:25:09;;;;;;;18.90;9.20;;;;;;;-3.24;68.75;101332.86;127445;1107;24481;-73
2021/03/20 06:27:53;;;;;;;16.95;8.78;;;;;;;-3.14;69.18;101330.80;126933;1109;22517;-73
2021/03/20 06:30:43;;;;;;;19.40;10.00;;;;;;;-3.03;68.77;101332.97;126941;1110;22501;-73
2021/03/20 06:33:35;;;;;;;18.10;9.78;;;;;;;-2.91;69.08;101328.20;126951;1111;23447;-74
2021/03/20 06:36:18;;;;;;;18.60;10.18;;;;;;;-2.72;69.25;101320.59;127011;1109;22550;-74
2021/03/20 06:39:01;;;;;;;23.12;11.57;;;;;;;-2.51;69.29;101326.66;126948;1111;22517;-75
2021/03/20 06:41:57;;;;;;;19.20;10.05;;;;;;;-2.24;69.04;101324.72;126982;1109;24396;-75
2021/03/20 06:44:38;;;;;;;16.87;8.98;;;;;;;-1.92;69.37;101327.75;126974;1110;22530;-81
2021/03/20 06:47:20;;;;;;;16.67;8.03;;;;;;;-1.54;69.10;101322.67;126983;1109;22513;-74
2021/03/20 06:50:02;;;;;;;17.67;10.05;;;;;;;-1.15;69.36;101321.84;126937;1109;22597;-73
2021/03/20 06:52:35;;;;;;;17.95;11.15;;;;;;;-0.55;70.31;101327.70;127290;1106;22744;-72
2021/03/20 06:55:20;;;;;;;13.48;8.45;;;;;;;0.04;69.83;101317.94;127469;1105;22466;-72
2021/03/20 06:57:48;;;;;;;16.95;9.08;;;;;;;0.52;68.42;101326.75;128031;1103;22498;-72
2021/03/20 07:00:30;;;;;;;21.75;12.28;;;;;;;0.91;67.57;101329.03;127546;1105;22893;-72
2021/03/20 07:03:13;;;;;;;16.02;8.58;;;;;;;1.38;66.41;101336.86;127908;1104;22537;-72
2021/03/20 07:06:15;;;;;;;21.93;13.62;;;;;;;1.65;64.29;101334.48;128172;1099;22576;-72
2021/03/20 07:08:58;;;;;;;16.55;9.65;;;;;;;1.93;63.11;101337.28;127943;1099;24597;-73
2021/03/20 07:11:29;;;;;;;;;;;;;;;2.17;62.67;101337.66;127975;1101;22699;-74
2021/03/20 07:14:44;;;;;;;19.57;11.00;;;;;;;2.32;62.21;101342.78;128005;1100;21421;-74
2021/03/20 07:17:25;;;;;;;23.67;13.90;;;;;;;2.47;60.41;101346.27;127988;1101;22612;-73
2021/03/20 07:20:12;;;;;;;22.15;10.63;;;;;;;2.78;61.28;101360.91;128028;1101;22572;-73
2021/03/20 07:23:14;;;;;;;13.10;8.10;;;;;;;3.15;60.09;101356.05;127946;1101;22575;-73
2021/03/20 07:26:13;;;;;;;15.48;7.00;;;;;;;3.44;58.82;101359.45;128051;1101;22843;-73
2021/03/20 07:28:51;;;;;;;10.08;6.53;;;;;;;3.51;57.90;101360.73;128035;1100;22556;-73
2021/03/20 07:31:21;;;;;;;12.03;7.08;;;;;;;3.61;57.51;101354.94;127938;1101;24578;-73
2021/03/20 07:33:53;;;;;;;13.62;7.45;;;;;;;3.90;57.38;101360.87;127990;1101;25090;-73
2021/03/20 07:36:36;;;;;;;8.90;6.75;;;;;;;4.07;55.82;101362.41;128001;1101;22495;-72
2021/03/20 07:39:20;;;;;;;9.75;6.78;;;;;;;4.24;55.50;101355.11;128158;1099;22512;-73
2021/03/20 07:41:55;;;;;;;10.40;6.80;;;;;;;4.54;55.39;101369.69;128094;1099;24600;-73
2021/03/20 07:45:16;;;;;;;14.03;8.70;;;;;;;4.84;54.67;101377.23;127929;1101;22514;-73
2021/03/20 07:48:05;;;;;;;13.43;6.83;;;;;;;5.03;52.73;101381.17;127930;1101;22509;-73
2021/03/20 07:51:06;;;;;;;13.62;8.00;;;;;;;4.92;52.91;101379.31;127996;1101;22507;-72
2021/03/20 07:53:53;;;;;;;15.20;8.03;;;;;;;5.19;53.14;101376.55;127951;1101;24718;-73
2021/03/20 07:56:34;;;;;;;12.30;6.95;;;;;;;5.48;52.56;101379.73;127955;1101;22492;-81
2021/03/20 07:59:23;;;;;;;10.28;6.55;;;;;;;5.38;50.54;101378.72;127996;1101;22498;-77
2021/03/20 08:02:02;;;;;;;10.30;6.22;;;;;;;5.31;50.57;101375.69;127997;1101;22623;-77
2021/03/20 08:05:01;;;;;;;14.33;8.63;;;;;;;5.46;50.82;101381.61;127972;1101;22632;-87
2021/03/20 08:07:41;;;;;;;19.20;8.08;;;;;;;5.75;50.82;101384.77;128001;1101;22508;-81
2021/03/20 08:10:23;;;;;;;22.77;7.15;;;;;;;6.10;50.70;101387.48;128237;1101;22493;-77
2021/03/20 08:13:22;;;;;;;;;;;;;;;6.18;49.20;101392.15;127981;1101;22500;-77
2021/03/20 08:15:56;;;;;;;11.05;6.60;;;;;;;6.29;49.71;101391.34;128022;1101;21320;-78
2021/03/20 08:18:29;;;;;;;10.28;6.28;;;;;;;6.47;49.12;101394.39;128088;1101;24574;-78
2021/03/20 08:21:13;;;;;;;9.80;6.65;;;;;;;6.29;47.32;101391.34;127999;1100;22498;-78
2021/03/20 08:24:06;;;;;;;11.70;6.40;;;;;;;5.67;46.27;101400.23;127994;1101;22505;-79
2021/03/20 08:26:41;;;;;;;10.23;5.28;;;;;;;5.24;46.96;101397.20;128142;1101;22523;-78
2021/03/20 08:29:52;;;;;;;9.53;6.35;;;;;;;5.36;48.55;101396.31;128245;1099;25131;-78
2021/03/20 08:32:52;;;;;;;18.10;7.50;;;;;;;5.30;46.88;101399.36;128272;1100;22635;-79
2021/03/20 08:35:51;;;;;;;17.48;7.00;;;;;;;5.27;48.36;101407.47;128009;1101;23229;-80
2021/03/20 08:38:19;;;;;;;9.75;5.90;;;;;;;5.24;46.71;101407.67;128043;1100;22498;-79
2021/03/20 08:41:35;;;;;;;12.30;6.50;;;;;;;5.06;46.58;101410.61;128236;1101;24590;-80
2021/03/20 08:44:22;;;;;;;9.15;5.55;;;;;;;4.56;46.51;101403.59;127992;1101;23140;-79
2021/03/20 08:47:27;;;;;;;11.57;6.33;;;;;;;4.01;46.49;101402.86;128248;1101;22625;-75
2021/03/20 08:50:31;;;;;;;13.78;6.12;;;;;;;3.85;48.82;101405.62;128237;1100;22573;-73
2021/03/20 08:53:02;;;;;;;10.32;6.22;;;;;;;4.69;49.23;101407.06;127957;1101;22490;-78
2021/03/20 08:56:08;;;;;;;11.65;7.15;;;;;;;4.84;47.57;101410.43;127984;1100;22571;-78
2021/03/20 08:59:03;;;;;;;11.43;6.80;;;;;;;4.61;46.64;101407.58;128211;1099;22494;-74
2021/03/20 09:01:51;;;;;;;9.48;5.28;;;;;;;5.32;49.07;101400.94;127972;1101;22566;-73
2021/03/20 09:04:34;;;;;;;6.53;4.60;;;;;;;6.20;47.61;101399.89;127957;1101;22623;-73
2021/03/20 09:07:20;;;;;;;9.40;4.87;;;;;;;6.21;44.51;101406.83;128003;1101;24365;-73
2021/03/20 09:09:59;;;;;;;8.13;4.33;;;;;;;6.14;44.98;101406.45;127981;1101;22572;-73
2021/03/20 09:12:38;;;;;;;6.50;3.02;;;;;;;6.59;45.29;101411.83;127943;1101;22497;-73
2021/03/20 09:15:19;;;;;;;4.53;2.42;;;;;;;7.28;44.27;101409.97;127940;1101;22686;-73
2021/03/20 09:17:48;;;;;;;6.95;3.50;;;;;;;7.49;41.93;101411.86;128021;1101;22576;-73
2021/03/20 09:20:48;;;;;;;6.05;3.65;;;;;;;7.16;40.56;101410.09;128054;1099;22491;-74
2021/03/20 09:23:32;;;;;;;6.55;3.12;;;;;;;6.54;40.05;101408.73;127977;1100;22862;-74
2021/03/20 09:26:06;;;;;;;5.85;4.10;;;;;;;5.95;39.63;101412.20;127953;1101;25164;-73
2021/03/20 09:28:52;;;;;;;8.55;4.45;;;;;;;5.53;39.88;101414.33;127996;1101;23208;-73
2021/03/20 09:31:56;;;;;;;8.15;3.62;;;;;;;5.14;40.13;101420.58;128220;1101;23518;-73
2021/03/20 09:34:43;;;;;;;6.85;3.42;;;;;;;4.71;40.58;101421.73;127945;1102;23433;-74
2021/03/20 09:37:17;;;;;;;6.45;3.37;;;;;;;4.30;40.26;101421.02;127908;1104;22501;-74
2021/03/20 09:39:53;;;;;;;6.87;3.05;;;;;;;3.92;41.20;101429.59;127885;1103;22500;-74
2021/03/20 09:42:27;;;;;;;11.18;4.97;;;;;;;3.56;41.54;101432.75;127660;1105;22497;-74
2021/03/20 09:45:03;;;;;;;7.37;5.20;;;;;;;3.28;42.18;101435.30;127907;1105;22503;-75
2021/03/20 09:47:46;;;;;;;10.32;5.53;;;;;;;3.05;42.69;101430.65;127541;1104;22510;-73
2021/03/20 09:50:17;;;;;;;6.92;4.70;;;;;;;2.76;43.39;101433.22;127885;1102;22492;-74
2021/03/20 09:53:08;;;;;;;10.18;6.28;;;;;;;2.51;43.37;101430.39;127876;1104;25070;-75
2021/03/20 09:55:42;;;;;;;10.78;6.75;;;;;;;2.24;44.19;101438.88;127574;1105;24593;-74
2021/03/20 09:58:19;;;;;;;9.13;6.35;;;;;;;2.07;44.75;101434.62;127904;1102;22506;-74
2021/03/20 10:00:50;;;;;;;9.18;5.37;;;;;;;2.02;45.80;101443.61;127894;1104;22605;-74
2021/03/20 10:03:41;;;;;;;15.55;6.85;;;;;;;2.00;46.48;101437.63;127939;1102;24630;-73
2021/03/20 10:06:13;;;;;;;12.50;6.53;;;;;;;2.77;48.94;101437.53;127994;1104;22502;-75
2021/03/20 10:08:47;;;;;;;8.75;5.90;;;;;;;3.98;49.61;101442.27;127928;1102;22532;-74
2021/03/20 10:11:59;;;;;;;10.50;6.53;;;;;;;4.93;46.90;101439.45;127966;1101;24597;-73
2021/03/20 10:14:34;;;;;;;9.00;4.90;;;;;;;5.30;44.89;101450.01;127503;1107;22527;-73
2021/03/20 10:17:16;;;;;;;7.22;4.08;;;;;;;5.34;42.88;101442.77;127464;1106;22679;-74
2021/03/20 10:19:52;;;;;;;8.23;4.55;;;;;;;5.10;41.68;101433.05;127327;1106;22655;-73
2021/03/20 10:22:30;;;;;;;8.73;5.10;;;;;;;4.99;42.17;101437.33;127461;1107;22524;-73
2021/03/20 10:24:58;;;;;;;10.50;7.28;;;;;;;4.78;41.18;101442.26;127384;1106;22511;-73
2021/03/20 10:27:44;;;;;;;10.58;6.15;;;;;;;4.55;41.40;101436.78;127447;1107;22558;-73
2021/03/20 10:30:22;;;;;;;6.78;4.42;;;;;;;4.34;40.75;101439.05;127351;1106;24471;-73
2021/03/20 10:33:03;;;;;;;7.80;5.33;;;;;;;4.04;40.44;101438.44;127306;1107;22518;-74
2021/03/20 10:35:38;;;;;;;7.07;4.23;;;;;;;3.69;41.25;101439.72;127402;1105;22624;-73
2021/03/20 10:38:28;;;;;;;7.83;4.80;;;;;;;3.42;41.36;101439.67;127470;1106;24735;-74
2021/03/20 10:41:08;;;;;;;17.50;9.55;;;;;;;3.16;41.41;101435.21;127415;1106;23434;-73
2021/03/20 10:44:11;;;;;;;12.00;8.73;;;;;;;2.89;42.45;101445.55;127305;1107;22549;-73
2021/03/20 10:47:07;;;;;;;12.60;8.10;;;;;;;2.60;42.32;101437.69;127000;1108;24632;-72
2021/03/20 10:49:57;;;;;;;15.80;8.38;;;;;;;2.46;42.77;101442.84;127022;1107;22552;-75
2021/03/20 10:52:32;;;;;;;11.90;6.50;;;;;;;2.27;42.90;101441.31;127488;1105;22542;-74
2021/03/20 10:55:19;;;;;;;9.63;6.57;;;;;;;2.17;43.08;101445.37;127405;1105;22512;-74
2021/03/20 10:57:48;;;;;;;18.67;9.45;;;;;;;2.07;43.87;101439.83;127398;1105;22501;-74
2021/03/20 11:01:03;;;;;;;11.40;7.08;;;;;;;2.05;44.21;101449.49;127433;1105;24607;-72
2021/03/20 11:03:41;;;;;;;9.80;6.80;;;;;;;1.96;44.66;101457.81;127855;1104;23631;-73
2021/03/20 11:06:22;;;;;;;7.03;4.25;;;;;;;1.86;44.38;101444.45;127871;1103;22491;-74
2021/03/20 11:09:19;;;;;;;7.42;5.33;;;;;;;1.71;44.22;101437.50;127459;1104;22531;-75
2021/03/20 11:11:48;;;;;;;5.37;4.20;;;;;;;1.70;45.31;101437.56;127832;1104;23625;-74
2021/03/20 11:14:20;;;;;;;12.10;5.80;;;;;;;1.76;45.34;101439.84;127442;1105;22623;-73
2021/03/20 11:17:02;;;;;;;12.63;8.78;;;;;;;1.78;44.87;101432.80;127583;1105;24356;-73
2021/03/20 11:19:36;;;;;;;14.33;9.50;;;;;;;1.72;45.33;101426.14;127870;1104;22801;-74
2021/03/20 11:22:31;;;;;;;10.58;6.80;;;;;;;1.70;45.32;101427.15;127494;1105;22544;-73
2021/03/20 11:25:29;;;;;;;16.35;11.00;;;;;;;1.63;45.46;101437.06;128170;1099;22501;-74
2021/03/20 11:28:08;;;;;;;17.92;11.57;;;;;;;1.63;46.37;101426.64;128158;1099;22466;-73
2021/03/20 11:30:50;;;;;;;21.07;15.50;;;;;;;1.62;45.75;101423.20;127977;1101;23596;-73
2021/03/20 11:33:26;;;;;;;28.75;19.00;;;;;;;1.63;45.70;101419.70;128035;1101;23249;-74
2021/03/20 11:36:00;;;;;;;24.23;18.55;;;;;;;1.60;45.67;101416.39;127999;1100;22488;-72
2021/03/20 11:38:29;;;;;;;17.95;12.43;;;;;;;1.57;46.49;101409.61;127909;1101;22959;-72
2021/03/20 11:41:03;;;;;;;24.40;15.60;;;;;;;1.59;46.33;101412.11;127947;1101;22531;-72
2021/03/20 11:43:45;;;;;;;27.58;19.30;;;;;;;1.69;47.09;101402.87;128223;1101;22573;-73
2021/03/20 11:46:21;;;;;;;28.15;22.48;;;;;;;1.82;46.54;101397.83;128199;1100;22625;-73
2021/03/20 11:49:00;;;;;;;12.63;8.50;;;;;;;1.88;45.94;101393.11;127996;1099;22501;-73
2021/03/20 11:51:48;;;;;;;17.55;10.90;;;;;;;1.91;46.57;101397.31;127939;1101;22509;-74
2021/03/20 11:54:40;;;;;;;12.75;8.15;;;;;;;1.96;46.75;101390.06;127991;1101;22535;-73
2021/03/20 11:57:11;;;;;;;17.65;13.85;;;;;;;1.97;45.86;101393.53;127464;1103;22785;-73
2021/03/20 11:59:42;;;;;;;17.55;11.35;;;;;;;2.08;46.20;101393.75;127872;1104;22531;-72
2021/03/20 12:02:37;;;;;;;23.62;16.27;;;;;;;2.23;45.74;101385.06;127597;1105;22524;-73
2021/03/20 12:05:13;;;;;;;9.85;5.72;;;;;;;2.32;45.48;101394.94;126993;1108;22656;-73
2021/03/20 12:07:42;;;;;;;6.40;4.37;;;;;;;2.44;46.01;101387.34;127509;1106;23444;-72
2021/03/20 12:10:24;;;;;;;7.45;4.08;;;;;;;2.52;44.79;101378.12;127082;1108;22574;-72
2021/03/20 12:12:56;;;;;;;6.87;4.35;;;;;;;2.54;45.04;101378.05;127441;1107;22737;-73
2021/03/20 12:15:36;;;;;;;5.58;3.60;;;;;;;2.61;44.90;101374.14;127636;1108;24373;-73
2021/03/20 12:18:20;;;;;;;6.35;3.87;;;;;;;2.68;44.47;101377.22;127069;1108;24626;-72
2021/03/20 12:20:50;;;;;;;6.00;3.80;;;;;;;2.73;43.74;101373.41;127068;1108;22560;-73
2021/03/20 12:23:24;;;;;;;8.03;4.78;;;;;;;2.75;43.09;101374.14;127052;1108;22711;-72